Quick Links (Output Below):   Max & Min Temps   /   Climate Reports   /   Zone Forecasts
River Forecasts   /   Forestry Forecasts   /   Aviation Forecasts   /   Radars   /   Features

Terminal Aerodrome Forecast (Jonesboro)

Pick a Site:
Arkadelphia | El Dorado | Fayetteville | Fort Smith | Harrison | Highfill | Hot Springs | Jonesboro
Little Rock | Monticello | Mountain Home | Pine Bluff | Texarkana
 Forecast 

KJBR 282359Z 2900/2924 07006KT P6SM SCT050 SCT250
     FM290100 04003KT P6SM SKC
     FM291600 07006KT P6SM SCT040 SCT250=


 Latest METARs (Observations) 
How to Decode METARs
01Z KJBR 290053Z AUTO 04003KT 10SM CLR 26/22 A3004 RMK AO2 SLP167
         T02610222
         
00Z KJBR 282353Z AUTO 07004KT 10SM CLR 28/22 A3003 RMK AO2 SLP164
         T02780222 10339 20278 55002
         
***** Today's Observations (Above) *****


23Z KJBR 282253Z AUTO 06006KT 10SM CLR 32/23 A3002 RMK AO2 SLP163
         T03170233
         
22Z KJBR 282153Z AUTO 08008KT 10SM CLR 33/22 A3002 RMK AO2 SLP163
         T03330217
         
21Z KJBR 282053Z AUTO 07010KT 10SM CLR 33/23 A3003 RMK AO2 SLP167
         T03280228 58025
         
20Z KJBR 281953Z AUTO 06009KT 10SM FEW044 FEW065 SCT080 32/24 A3007
         RMK AO2 LTG DSNT S SLP179 T03220244
         
19Z KJBR 281853Z AUTO 07009KT 10SM SCT080 BKN090 32/24 A3010 RMK AO2
         SLP189 T03220244
         
18Z KJBR 281753Z AUTO 06009KT 10SM FEW090 32/25 A3011 RMK AO2 SLP191
         T03220250 10328 20233 58006
         
17Z KJBR 281653Z AUTO 05006KT 10SM CLR 32/25 A3012 RMK AO2 SLP195
         T03170250
         
16Z KJBR 281553Z AUTO VRB06KT 10SM CLR 31/25 A3013 RMK AO2 SLP199
         T03110250
         
***** Yesterday's Observations (Above) *****


Back to Main Page
http://www.srh.noaa.gov/lzk/qfcst.php

USA.gov is the U.S. government's official web portal to all federal, state and local government web resources and services.